createdAt,value
2018-05-23T00:00:15.007Z,7.20
2018-05-23T00:01:15.001Z,7.20
2018-05-23T00:02:14.994Z,7.00
2018-05-23T00:03:14.988Z,6.30
2018-05-23T00:04:14.982Z,7.50
2018-05-23T00:05:14.977Z,7.90
2018-05-23T00:06:14.970Z,0.30
2018-05-23T00:07:14.965Z,0.30
2018-05-23T00:08:14.961Z,0.50
2018-05-23T00:09:14.956Z,0.10
2018-05-23T00:10:14.946Z,0.20
2018-05-23T00:11:14.940Z,0.60
2018-05-23T00:12:14.939Z,0.20
2018-05-23T00:13:14.928Z,0.20
2018-05-23T00:14:14.921Z,0.30
2018-05-23T00:15:14.916Z,0.50
2018-05-23T00:16:14.910Z,0.20
2018-05-23T00:17:14.904Z,0.50
2018-05-23T00:18:15.100Z,0.30
2018-05-23T00:19:14.893Z,0.70
2018-05-23T00:20:14.886Z,0.10
2018-05-23T00:21:14.882Z,0.40
2018-05-23T00:22:14.873Z,0.60
2018-05-23T00:23:14.867Z,0.60
2018-05-23T00:24:14.862Z,0.50
2018-05-23T00:25:14.862Z,0.30
2018-05-23T00:26:14.849Z,0.10
2018-05-23T00:27:14.848Z,0.50
2018-05-23T00:28:14.838Z,0.80
2018-05-23T00:29:14.831Z,0.20
2018-05-23T00:30:14.825Z,0.50
2018-05-23T00:31:14.819Z,0.70
2018-05-23T00:32:14.813Z,0.40
2018-05-23T00:33:14.807Z,0.50
2018-05-23T00:34:14.801Z,0.70
2018-05-23T00:35:14.795Z,1.40
2018-05-23T00:36:14.789Z,0.50
2018-05-23T00:37:14.783Z,0.50
2018-05-23T00:38:14.777Z,0.60
2018-05-23T00:39:14.770Z,0.30
2018-05-23T00:40:14.770Z,0.30
2018-05-23T00:41:14.759Z,0.40
2018-05-23T00:42:14.752Z,0.20
2018-05-23T00:43:14.746Z,0.30
2018-05-23T00:44:14.741Z,0.10
2018-05-23T00:45:14.735Z,0.40
2018-05-23T00:46:14.727Z,0.60
2018-05-23T00:47:14.722Z,0.10
2018-05-23T00:48:14.716Z,0.10
2018-05-23T00:49:14.710Z,0.10
2018-05-23T00:50:14.791Z,0.20
2018-05-23T00:51:14.698Z,0.20
2018-05-23T00:52:14.693Z,0.90
2018-05-23T00:53:14.689Z,0.50
2018-05-23T00:54:14.679Z,0.90
2018-05-23T00:55:14.673Z,0.30
2018-05-23T00:56:14.669Z,0.40
2018-05-23T00:57:14.661Z,0.10
2018-05-23T00:58:14.654Z,0.20
2018-05-23T00:59:14.650Z,0.20
2018-05-23T01:00:14.643Z,0.20
2018-05-23T01:01:14.639Z,0.20
2018-05-23T01:02:14.631Z,0.10
2018-05-23T01:03:14.625Z,0.40
2018-05-23T01:04:14.619Z,0.20
2018-05-23T01:05:14.613Z,0.20
2018-05-23T01:06:14.606Z,0.10
2018-05-23T01:07:14.600Z,0.50
2018-05-23T01:08:14.595Z,0.10
2018-05-23T01:09:14.589Z,0.40
2018-05-23T01:10:14.583Z,0.40
2018-05-23T01:11:14.577Z,0.10
2018-05-23T01:12:14.576Z,0.50
2018-05-23T01:13:14.565Z,0.10
2018-05-23T01:14:14.558Z,0.20
2018-05-23T01:15:14.553Z,0.30
2018-05-23T01:16:14.548Z,0.20
2018-05-23T01:17:14.541Z,0.40
2018-05-23T01:18:14.535Z,0.20
2018-05-23T01:19:14.529Z,0.10
2018-05-23T01:20:14.523Z,0.10
2018-05-23T01:21:14.519Z,0.20
2018-05-23T01:22:14.512Z,0.10
2018-05-23T01:23:14.511Z,0.50
2018-05-23T01:24:14.500Z,0.40
2018-05-23T01:25:14.495Z,0.20
2018-05-23T01:27:14.485Z,0.00
2018-05-23T01:28:14.477Z,1.00
2018-05-23T01:29:14.471Z,0.40
2018-05-23T01:30:14.465Z,0.70
2018-05-23T01:31:14.463Z,0.10
2018-05-23T01:32:14.454Z,0.00
2018-05-23T01:33:14.448Z,0.10
2018-05-23T01:34:14.441Z,0.20
2018-05-23T01:35:14.438Z,0.40
2018-05-23T01:36:14.430Z,0.20
2018-05-23T01:37:14.425Z,1.10
2018-05-23T01:38:14.419Z,0.30
2018-05-23T01:39:14.417Z,0.20
2018-05-23T01:40:14.407Z,0.10
2018-05-23T01:41:14.402Z,0.50
2018-05-23T01:42:14.396Z,0.60
2018-05-23T01:43:14.391Z,0.50
2018-05-23T01:44:14.390Z,0.20
2018-05-23T01:45:14.379Z,0.10
2018-05-23T01:46:14.372Z,0.70
2018-05-23T01:47:14.366Z,0.30
2018-05-23T01:48:14.361Z,0.10
2018-05-23T01:49:14.355Z,0.30
2018-05-23T01:50:14.348Z,0.20
2018-05-23T01:51:14.343Z,0.10
2018-05-23T01:52:14.338Z,0.30
2018-05-23T01:53:14.332Z,0.30
2018-05-23T01:54:14.332Z,0.30
2018-05-23T01:55:14.320Z,0.20
2018-05-23T01:56:14.314Z,0.20
2018-05-23T01:57:14.309Z,0.10
2018-05-23T01:58:14.302Z,0.20
2018-05-23T01:59:14.296Z,0.00
2018-05-23T02:00:14.293Z,0.10
2018-05-23T02:01:14.286Z,0.10
2018-05-23T02:02:14.280Z,0.00
2018-05-23T02:03:14.273Z,0.10
2018-05-23T02:04:14.268Z,0.30
2018-05-23T02:05:14.265Z,0.60
2018-05-23T02:06:14.256Z,0.50
2018-05-23T02:07:14.251Z,0.10
2018-05-23T02:08:14.245Z,0.30
2018-05-23T02:09:14.244Z,0.10
2018-05-23T02:10:14.233Z,0.10
2018-05-23T02:11:14.229Z,0.20
2018-05-23T02:12:14.222Z,5.30
2018-05-23T02:13:14.216Z,6.20
2018-05-23T02:14:14.210Z,6.60
2018-05-23T02:15:14.204Z,5.80
2018-05-23T02:16:14.200Z,5.70
2018-05-23T02:17:14.193Z,7.50
2018-05-23T02:18:14.186Z,6.20
2018-05-23T02:19:14.385Z,6.90
2018-05-23T02:20:14.175Z,6.70
2018-05-23T02:21:14.169Z,6.60
2018-05-23T02:22:14.163Z,5.90
2018-05-23T02:23:14.157Z,6.60
2018-05-23T02:24:14.152Z,6.70
2018-05-23T02:25:14.146Z,7.00
2018-05-23T02:26:14.139Z,6.30
2018-05-23T02:27:14.137Z,6.80
2018-05-23T02:28:14.128Z,6.80
2018-05-23T02:29:14.123Z,6.40
2018-05-23T02:30:14.117Z,6.80
2018-05-23T02:31:14.113Z,6.30
2018-05-23T02:32:14.106Z,6.90
2018-05-23T02:33:14.101Z,6.70
2018-05-23T02:34:14.094Z,7.60
2018-05-23T02:35:14.092Z,7.30
2018-05-23T02:36:14.084Z,6.30
2018-05-23T02:37:14.280Z,7.30
2018-05-23T02:38:14.070Z,7.80
2018-05-23T02:39:14.064Z,6.70
2018-05-23T02:40:14.059Z,6.80
2018-05-23T02:41:14.054Z,6.80
2018-05-23T02:42:14.047Z,7.40
2018-05-23T02:43:14.041Z,7.30
2018-05-23T02:44:14.035Z,7.10
2018-05-23T02:45:14.030Z,6.40
2018-05-23T02:46:14.026Z,5.80
2018-05-23T02:47:14.116Z,6.90
2018-05-23T02:48:14.016Z,6.80
2018-05-23T02:49:14.007Z,7.60
2018-05-23T02:50:14.000Z,6.30
2018-05-23T02:51:13.994Z,7.80
2018-05-23T02:52:13.989Z,7.30
2018-05-23T02:53:13.983Z,8.10
2018-05-23T02:54:13.977Z,7.00
2018-05-23T02:55:13.971Z,7.00
2018-05-23T02:56:13.968Z,6.50
2018-05-23T02:57:13.960Z,7.20
2018-05-23T02:58:13.959Z,6.90
2018-05-23T02:59:13.948Z,6.90
2018-05-23T03:00:13.942Z,7.60
2018-05-23T03:01:13.940Z,7.30
2018-05-23T03:02:13.936Z,6.70
2018-05-23T03:03:13.925Z,8.20
2018-05-23T03:04:13.920Z,7.20
2018-05-23T03:05:13.913Z,6.90
2018-05-23T03:06:13.906Z,7.10
2018-05-23T03:07:13.901Z,7.30
2018-05-23T03:08:13.895Z,8.40
2018-05-23T03:09:13.890Z,8.60
2018-05-23T03:10:13.883Z,7.80
2018-05-23T03:11:13.880Z,7.20
2018-05-23T03:12:13.873Z,7.20
2018-05-23T03:13:13.866Z,8.20
2018-05-23T03:14:13.860Z,8.00
2018-05-23T03:15:13.855Z,8.00
2018-05-23T03:16:13.849Z,7.40
2018-05-23T03:17:13.843Z,7.90
2018-05-23T03:18:13.840Z,8.90
2018-05-23T03:19:13.831Z,7.30
2018-05-23T03:20:13.828Z,6.50
2018-05-23T03:21:13.821Z,6.40
2018-05-23T03:22:13.836Z,7.30
2018-05-23T03:23:13.813Z,8.00
2018-05-23T03:24:13.803Z,7.00
2018-05-23T03:25:13.797Z,6.50
2018-05-23T03:26:13.791Z,7.60
2018-05-23T03:27:13.785Z,7.40
2018-05-23T03:28:13.780Z,7.10
2018-05-23T03:29:13.774Z,7.80
2018-05-23T03:30:13.768Z,7.30
2018-05-23T03:31:13.766Z,9.00
2018-05-23T03:32:13.757Z,8.10
2018-05-23T03:33:13.751Z,8.50
2018-05-23T03:34:13.749Z,8.30
2018-05-23T03:35:13.739Z,7.90
2018-05-23T03:36:13.733Z,8.70
2018-05-23T03:37:13.727Z,8.20
2018-05-23T03:38:13.721Z,9.00
2018-05-23T03:39:13.716Z,8.30
2018-05-23T03:40:13.713Z,7.80
2018-05-23T03:41:13.704Z,7.30
2018-05-23T03:42:13.698Z,7.50
2018-05-23T03:43:13.692Z,8.30
2018-05-23T03:44:13.689Z,7.60
2018-05-23T03:45:13.681Z,8.70
2018-05-23T03:46:13.674Z,7.90
2018-05-23T03:47:13.668Z,7.80
2018-05-23T03:48:13.663Z,7.40
2018-05-23T03:49:13.657Z,8.10
2018-05-23T03:50:13.652Z,7.80
2018-05-23T03:51:13.649Z,7.60
2018-05-23T03:52:13.640Z,7.70
2018-05-23T03:53:13.634Z,7.90
2018-05-23T03:54:13.627Z,8.00
2018-05-23T03:55:13.678Z,7.90
2018-05-23T03:56:13.618Z,8.50
2018-05-23T03:57:13.615Z,7.80
2018-05-23T03:58:13.604Z,8.20
2018-05-23T03:59:13.601Z,6.90
2018-05-23T04:00:13.594Z,9.40
2018-05-23T04:01:13.789Z,8.10
2018-05-23T04:02:13.580Z,8.10
2018-05-23T04:03:13.574Z,8.80
2018-05-23T04:04:13.573Z,7.50
2018-05-23T04:05:13.563Z,8.70
2018-05-23T04:06:13.559Z,7.70
2018-05-23T04:07:13.551Z,7.90
2018-05-23T04:08:13.554Z,7.50
2018-05-23T04:09:13.540Z,7.40
2018-05-23T04:10:13.533Z,7.30
2018-05-23T04:11:13.529Z,8.40
2018-05-23T04:12:13.522Z,8.30
2018-05-23T04:13:13.520Z,7.60
2018-05-23T04:14:13.509Z,8.80
2018-05-23T04:15:13.509Z,8.30
2018-05-23T04:16:13.501Z,7.60
2018-05-23T04:17:13.496Z,7.80
2018-05-23T04:18:13.486Z,7.60
2018-05-23T04:19:13.482Z,8.50
2018-05-23T04:20:13.481Z,8.10
2018-05-23T04:21:13.469Z,8.30
2018-05-23T04:22:13.462Z,8.90
2018-05-23T04:23:13.457Z,8.70
2018-05-23T04:24:13.451Z,8.40
2018-05-23T04:25:13.448Z,8.80
2018-05-23T04:26:13.440Z,8.50
2018-05-23T04:27:13.434Z,8.10
2018-05-23T04:28:13.429Z,8.10
2018-05-23T04:29:13.423Z,8.50
2018-05-23T04:30:13.419Z,7.50
2018-05-23T04:31:13.413Z,8.30
2018-05-23T04:32:13.408Z,7.90
2018-05-23T04:33:13.400Z,8.30
2018-05-23T04:34:13.393Z,9.10
2018-05-23T04:35:13.388Z,8.20
2018-05-23T04:36:13.382Z,8.70
2018-05-23T04:37:13.377Z,8.70
2018-05-23T04:38:13.370Z,7.90
2018-05-23T04:39:13.378Z,8.00
2018-05-23T04:40:13.365Z,7.90
2018-05-23T04:41:13.359Z,8.40
2018-05-23T04:42:13.353Z,7.90
2018-05-23T04:43:13.342Z,8.90
2018-05-23T04:44:13.348Z,8.40
2018-05-23T04:45:13.332Z,8.40
2018-05-23T04:46:13.363Z,8.00
2018-05-23T04:47:13.326Z,9.30
2018-05-23T04:48:13.318Z,8.50
2018-05-23T04:49:13.309Z,8.40
2018-05-23T04:50:13.304Z,8.30
2018-05-23T04:51:13.303Z,8.60
2018-05-23T04:52:13.292Z,8.20
2018-05-23T04:53:13.286Z,8.10
2018-05-23T04:54:13.279Z,8.20
2018-05-23T04:55:13.274Z,8.70
2018-05-23T04:56:13.276Z,9.30
2018-05-23T04:57:13.272Z,8.80
2018-05-23T04:58:13.260Z,9.10
2018-05-23T04:59:13.255Z,9.30
2018-05-23T05:00:13.250Z,8.70
2018-05-23T05:01:13.243Z,8.70
2018-05-23T05:02:13.234Z,8.40
2018-05-23T05:03:13.228Z,8.80
2018-05-23T05:04:13.223Z,9.20
2018-05-23T05:05:13.222Z,8.70
2018-05-23T05:06:13.211Z,8.80
2018-05-23T05:07:13.208Z,9.50
2018-05-23T05:08:13.200Z,9.50
2018-05-23T05:09:13.194Z,9.50
2018-05-23T05:10:13.194Z,8.50
2018-05-23T05:11:13.187Z,9.20
2018-05-23T05:12:13.379Z,8.80
2018-05-23T05:13:13.178Z,9.70
2018-05-23T05:14:13.166Z,8.90
2018-05-23T05:15:13.164Z,9.00
2018-05-23T05:16:13.156Z,10.00
2018-05-23T05:17:13.150Z,9.90
2018-05-23T05:18:13.144Z,9.80
2018-05-23T05:19:13.150Z,9.30
2018-05-23T05:20:13.133Z,9.80
2018-05-23T05:21:13.135Z,9.70
2018-05-23T05:22:13.125Z,9.40
2018-05-23T05:23:13.125Z,10.00
2018-05-23T05:24:13.112Z,9.90
2018-05-23T05:25:13.107Z,9.50
2018-05-23T05:26:13.100Z,10.20
2018-05-23T05:27:13.098Z,9.70
2018-05-23T05:28:13.091Z,10.10
2018-05-23T05:29:13.085Z,9.10
2018-05-23T05:30:13.082Z,9.80
2018-05-23T05:31:13.073Z,9.30
2018-05-23T05:32:13.069Z,9.70
2018-05-23T05:33:13.065Z,9.60
2018-05-23T05:34:13.059Z,9.70
2018-05-23T05:35:13.053Z,9.60
2018-05-23T05:36:13.048Z,9.70
2018-05-23T05:37:13.049Z,9.70
2018-05-23T05:38:13.037Z,9.10
2018-05-23T05:39:13.235Z,9.30
2018-05-23T05:40:13.034Z,9.90
2018-05-23T05:41:13.023Z,8.90
2018-05-23T05:42:13.017Z,9.20
2018-05-23T05:43:13.018Z,10.10
2018-05-23T05:44:13.011Z,9.10
2018-05-23T05:45:13.005Z,9.70
2018-05-23T05:46:12.997Z,10.40
2018-05-23T05:47:12.992Z,10.80
2018-05-23T05:48:12.992Z,11.00
2018-05-23T05:49:12.982Z,9.80
2018-05-23T05:50:12.976Z,10.10
2018-05-23T05:51:13.174Z,9.90
2018-05-23T05:52:12.970Z,10.80
2018-05-23T05:53:12.962Z,9.70
2018-05-23T05:54:13.040Z,10.30
2018-05-23T05:55:12.956Z,11.10
2018-05-23T05:56:12.947Z,10.80
2018-05-23T05:57:12.946Z,11.50
2018-05-23T05:58:12.935Z,10.10
2018-05-23T05:59:12.930Z,9.30
2018-05-23T06:00:12.929Z,10.20
2018-05-23T06:01:12.922Z,10.10
2018-05-23T06:02:12.917Z,10.60
2018-05-23T06:03:12.910Z,10.30
2018-05-23T06:04:12.910Z,10.60
2018-05-23T06:05:12.900Z,9.60
2018-05-23T06:06:12.899Z,10.60
2018-05-23T06:07:12.889Z,11.10
2018-05-23T06:08:12.885Z,11.80
2018-05-23T06:09:12.879Z,11.00
2018-05-23T06:10:12.877Z,11.10
2018-05-23T06:11:12.871Z,11.40
2018-05-23T06:12:12.865Z,10.10
2018-05-23T06:13:12.859Z,9.10
2018-05-23T06:14:13.056Z,9.70
2018-05-23T06:15:12.853Z,10.20
2018-05-23T06:16:12.843Z,10.70
2018-05-23T06:17:12.841Z,10.40
2018-05-23T06:18:12.837Z,10.60
2018-05-23T06:19:12.830Z,11.00
2018-05-23T06:20:12.830Z,11.30
2018-05-23T06:21:12.826Z,10.30
2018-05-23T06:22:12.879Z,11.10
2018-05-23T06:23:12.806Z,10.70
2018-05-23T06:25:12.799Z,11.90
2018-05-23T06:26:12.790Z,10.50
2018-05-23T06:27:12.788Z,11.20
2018-05-23T06:28:12.781Z,11.20
2018-05-23T06:29:12.776Z,10.80
2018-05-23T06:30:12.770Z,10.70
2018-05-23T06:31:12.765Z,11.00
2018-05-23T06:32:12.759Z,11.10
2018-05-23T06:33:12.754Z,10.90
2018-05-23T06:34:12.749Z,11.40
2018-05-23T06:35:12.748Z,11.00
2018-05-23T06:36:12.740Z,11.60
2018-05-23T06:37:12.936Z,10.50
2018-05-23T06:38:12.729Z,11.10
2018-05-23T06:39:12.725Z,11.30
2018-05-23T06:40:12.718Z,11.60
2018-05-23T06:41:12.716Z,12.40
2018-05-23T06:42:12.712Z,11.50
2018-05-23T06:43:12.709Z,12.80
2018-05-23T06:44:12.702Z,11.90
2018-05-23T06:45:12.699Z,11.40
2018-05-23T06:46:12.691Z,11.10
2018-05-23T06:47:12.891Z,11.80
2018-05-23T06:49:12.679Z,10.40
2018-05-23T06:50:12.669Z,12.20
2018-05-23T06:51:12.665Z,11.20
2018-05-23T06:52:12.661Z,11.60
2018-05-23T06:53:12.695Z,12.00
2018-05-23T06:54:12.659Z,11.40
2018-05-23T06:55:12.653Z,12.10
2018-05-23T06:56:12.642Z,11.70
2018-05-23T06:57:12.638Z,11.20
2018-05-23T06:58:12.632Z,11.60
2018-05-23T06:59:12.628Z,11.40
2018-05-23T07:00:12.625Z,12.00
2018-05-23T07:01:12.621Z,11.50
2018-05-23T07:02:12.617Z,12.40
2018-05-23T07:03:12.609Z,11.90
2018-05-23T07:04:12.605Z,11.70
2018-05-23T07:05:12.603Z,11.40
2018-05-23T07:06:12.600Z,11.80
2018-05-23T07:07:12.599Z,12.20
2018-05-23T07:08:12.590Z,11.00
2018-05-23T07:09:12.585Z,11.00
2018-05-23T07:10:12.579Z,12.00
2018-05-23T07:11:12.736Z,12.10
2018-05-23T07:12:12.571Z,12.60
2018-05-23T07:13:12.567Z,12.40
2018-05-23T07:14:12.578Z,12.30
2018-05-23T07:15:12.560Z,11.80
2018-05-23T07:16:12.555Z,11.90
2018-05-23T07:17:12.558Z,11.50
2018-05-23T07:18:12.643Z,11.90
2018-05-23T07:19:12.546Z,11.40
2018-05-23T07:20:12.539Z,12.70
2018-05-23T07:21:12.545Z,12.40
2018-05-23T07:22:12.609Z,12.50
2018-05-23T07:23:12.528Z,11.20
2018-05-23T07:24:12.525Z,11.70
2018-05-23T07:25:12.525Z,12.20
2018-05-23T07:26:12.517Z,12.90
2018-05-23T07:27:12.514Z,11.90
2018-05-23T07:28:12.514Z,12.50
2018-05-23T07:29:12.512Z,11.90
2018-05-23T07:30:12.506Z,11.30
2018-05-23T07:31:12.503Z,11.40
2018-05-23T07:32:12.497Z,10.20
2018-05-23T07:33:12.500Z,12.30
2018-05-23T07:35:12.488Z,13.10
2018-05-23T07:36:12.483Z,12.40
2018-05-23T07:37:12.487Z,11.70
2018-05-23T07:38:12.476Z,12.30
2018-05-23T07:39:12.472Z,12.50
2018-05-23T07:40:12.469Z,13.40
2018-05-23T07:41:12.469Z,13.40
2018-05-23T07:42:12.461Z,13.00
2018-05-23T07:43:12.457Z,13.10
2018-05-23T07:44:12.456Z,13.60
2018-05-23T07:45:12.455Z,12.70
2018-05-23T07:46:12.446Z,13.30
2018-05-23T07:47:12.442Z,13.10
2018-05-23T07:48:12.439Z,12.20
2018-05-23T07:49:12.437Z,12.00
2018-05-23T07:50:12.429Z,13.40
2018-05-23T07:51:12.430Z,13.70
2018-05-23T07:52:12.623Z,13.30
2018-05-23T07:53:12.420Z,13.10
2018-05-23T07:54:12.412Z,13.10
2018-05-23T07:55:12.409Z,13.00
2018-05-23T07:56:12.403Z,13.70
2018-05-23T07:57:12.399Z,14.20
2018-05-23T07:58:12.398Z,14.30
2018-05-23T07:59:12.390Z,14.80
2018-05-23T08:00:12.387Z,13.80
2018-05-23T08:01:12.386Z,14.50
2018-05-23T08:02:12.380Z,15.50
2018-05-23T08:03:12.373Z,15.40
2018-05-23T08:04:12.376Z,16.40
2018-05-23T08:05:12.368Z,16.50
2018-05-23T08:06:12.365Z,17.20
2018-05-23T08:07:12.356Z,16.20
2018-05-23T08:08:12.354Z,17.20
2018-05-23T08:09:12.349Z,15.40
2018-05-23T08:10:12.345Z,17.00
2018-05-23T08:11:12.341Z,17.10
2018-05-23T08:12:12.337Z,17.10
2018-05-23T08:13:12.334Z,17.30
2018-05-23T08:14:12.329Z,16.80
2018-05-23T08:15:12.325Z,16.10
2018-05-23T08:16:12.322Z,18.00
2018-05-23T08:17:12.319Z,19.00
2018-05-23T08:18:12.314Z,17.90
2018-05-23T08:19:12.311Z,17.70
2018-05-23T08:20:12.307Z,18.20
2018-05-23T08:21:12.305Z,16.00
2018-05-23T08:22:12.299Z,16.60
2018-05-23T08:23:12.298Z,17.50
2018-05-23T08:24:12.294Z,15.90
2018-05-23T08:25:12.290Z,16.70
2018-05-23T08:26:12.286Z,17.20
2018-05-23T08:27:12.288Z,17.60
2018-05-23T08:28:12.281Z,18.90
2018-05-23T08:29:12.281Z,17.30
2018-05-23T08:30:12.273Z,19.10
2018-05-23T08:31:12.272Z,19.20
2018-05-23T08:32:12.267Z,18.00
2018-05-23T08:33:12.264Z,17.60
2018-05-23T08:34:12.260Z,17.40
2018-05-23T08:35:12.261Z,18.60
2018-05-23T08:36:12.258Z,18.80
2018-05-23T08:37:12.251Z,18.10
2018-05-23T08:38:12.247Z,19.60
2018-05-23T08:39:12.254Z,20.10
2018-05-23T08:40:12.242Z,17.50
2018-05-23T08:41:12.242Z,18.70
2018-05-23T08:42:12.240Z,17.50
2018-05-23T08:43:12.236Z,19.20
2018-05-23T08:44:12.233Z,18.90
2018-05-23T08:45:12.228Z,19.50
2018-05-23T08:46:12.228Z,18.90
2018-05-23T08:47:12.222Z,18.40
2018-05-23T08:48:12.220Z,18.90
2018-05-23T08:49:12.218Z,17.80
2018-05-23T08:50:12.219Z,19.10
2018-05-23T08:51:12.212Z,19.40
2018-05-23T08:52:12.211Z,19.30
2018-05-23T08:53:12.208Z,19.60
2018-05-23T08:54:12.205Z,19.30
2018-05-23T08:55:12.407Z,19.80
2018-05-23T08:56:12.202Z,21.20
2018-05-23T08:57:12.200Z,19.20
2018-05-23T08:58:12.199Z,21.40
2018-05-23T08:59:12.198Z,19.40
2018-05-23T09:00:12.194Z,21.20
2018-05-23T09:01:12.190Z,20.20
2018-05-23T09:02:12.191Z,18.00
2018-05-23T09:03:12.190Z,18.50
2018-05-23T09:04:12.183Z,18.80
2018-05-23T09:05:12.184Z,18.00
2018-05-23T09:06:12.178Z,18.70
2018-05-23T09:07:12.176Z,19.80
2018-05-23T09:08:12.173Z,20.20
2018-05-23T09:09:12.175Z,19.20
2018-05-23T09:10:12.167Z,19.70
2018-05-23T09:11:12.166Z,19.20
2018-05-23T09:12:12.207Z,20.00
2018-05-23T09:13:12.160Z,20.10
2018-05-23T09:14:12.163Z,20.70
2018-05-23T09:15:12.155Z,20.20
2018-05-23T09:16:12.152Z,21.90
2018-05-23T09:17:12.152Z,19.10
2018-05-23T09:18:12.147Z,20.80
2018-05-23T09:19:12.145Z,20.40
2018-05-23T09:20:12.144Z,20.10
2018-05-23T09:21:12.147Z,21.40
2018-05-23T09:22:12.139Z,21.10
2018-05-23T09:23:12.133Z,20.10
2018-05-23T09:24:12.134Z,21.40
2018-05-23T09:25:12.131Z,21.30
2018-05-23T09:26:12.126Z,20.80
2018-05-23T09:27:12.122Z,21.00
2018-05-23T09:28:12.118Z,23.30
2018-05-23T09:29:12.116Z,20.70
2018-05-23T09:30:12.122Z,19.50
2018-05-23T09:31:12.118Z,22.80
2018-05-23T09:32:12.142Z,20.50
2018-05-23T09:33:12.107Z,21.20
2018-05-23T09:34:12.103Z,20.50
2018-05-23T09:35:12.097Z,19.90
2018-05-23T09:36:12.094Z,20.50
2018-05-23T09:37:12.092Z,20.50
2018-05-23T09:38:12.098Z,21.30
2018-05-23T09:39:12.122Z,21.60
2018-05-23T09:40:12.086Z,21.30
2018-05-23T09:41:12.080Z,20.80
2018-05-23T09:42:12.077Z,21.20
2018-05-23T09:43:12.075Z,21.80
2018-05-23T09:44:12.076Z,21.20
2018-05-23T09:45:12.115Z,20.50
2018-05-23T09:46:12.069Z,22.90
2018-05-23T09:47:12.069Z,21.60
2018-05-23T09:48:12.065Z,21.80
2018-05-23T09:49:12.061Z,20.30
2018-05-23T09:50:12.058Z,21.50
2018-05-23T09:51:12.056Z,20.70
2018-05-23T09:52:12.058Z,20.60
2018-05-23T09:53:12.459Z,21.50
2018-05-23T09:54:12.051Z,21.20
2018-05-23T09:55:12.277Z,21.20
2018-05-23T09:56:12.045Z,20.80
2018-05-23T09:57:12.046Z,21.60
2018-05-23T09:58:12.043Z,20.40
2018-05-23T09:59:12.048Z,21.10
2018-05-23T10:00:12.040Z,21.50
2018-05-23T10:01:12.039Z,19.40
2018-05-23T10:02:12.040Z,20.60
2018-05-23T10:03:12.033Z,19.60
2018-05-23T10:04:12.032Z,20.10
2018-05-23T10:05:12.035Z,19.70
2018-05-23T10:06:12.029Z,19.30
2018-05-23T10:07:12.029Z,20.20
2018-05-23T10:08:12.033Z,20.10
2018-05-23T10:09:12.028Z,19.70
2018-05-23T10:10:12.030Z,17.20
2018-05-23T10:11:12.026Z,20.50
2018-05-23T10:12:12.026Z,19.80
2018-05-23T10:13:12.026Z,18.80
2018-05-23T10:14:12.031Z,18.10
2018-05-23T10:15:12.027Z,16.80
2018-05-23T10:16:12.026Z,17.50
2018-05-23T10:17:12.026Z,16.90
2018-05-23T10:18:12.033Z,16.10
2018-05-23T10:19:12.028Z,16.80
2018-05-23T10:20:12.030Z,18.00
2018-05-23T10:21:12.029Z,17.90
2018-05-23T10:22:12.027Z,15.20
2018-05-23T10:23:12.029Z,16.70
2018-05-23T10:24:12.037Z,16.70
2018-05-23T10:25:12.033Z,16.90
2018-05-23T10:26:12.032Z,16.70
2018-05-23T10:27:12.036Z,16.00
2018-05-23T10:28:12.039Z,15.10
2018-05-23T10:29:12.036Z,15.50
2018-05-23T10:30:12.040Z,16.20
2018-05-23T10:31:12.041Z,14.50
2018-05-23T10:32:12.042Z,15.70
2018-05-23T10:33:12.043Z,15.10
2018-05-23T10:34:12.044Z,14.30
2018-05-23T10:35:12.053Z,15.50
2018-05-23T10:36:12.048Z,14.70
2018-05-23T10:37:12.050Z,14.90
2018-05-23T10:38:12.052Z,13.40
2018-05-23T10:39:12.060Z,13.00
2018-05-23T10:40:12.060Z,13.90
2018-05-23T10:41:12.061Z,14.00
2018-05-23T10:42:12.064Z,11.80
2018-05-23T10:43:12.068Z,11.10
2018-05-23T10:44:12.080Z,12.10
2018-05-23T10:45:12.077Z,12.60
2018-05-23T10:46:12.202Z,11.90
2018-05-23T10:47:12.095Z,11.60
2018-05-23T10:48:12.107Z,12.20
2018-05-23T10:49:12.106Z,12.00
2018-05-23T10:50:12.108Z,11.10
2018-05-23T10:51:12.116Z,11.40
2018-05-23T10:52:12.126Z,11.20
2018-05-23T10:53:12.131Z,11.10
2018-05-23T10:54:12.144Z,11.20
2018-05-23T10:55:12.148Z,11.20
2018-05-23T10:56:12.160Z,10.80
2018-05-23T10:57:12.179Z,9.90
2018-05-23T10:58:12.178Z,10.40
2018-05-23T10:59:12.182Z,11.10
2018-05-23T11:00:12.427Z,10.50
2018-05-23T11:01:12.204Z,9.40
2018-05-23T11:02:12.212Z,9.50
2018-05-23T11:03:12.224Z,9.70
2018-05-23T11:04:12.229Z,11.00
2018-05-23T11:05:12.239Z,10.10
2018-05-23T11:06:12.247Z,10.10
2018-05-23T11:07:12.260Z,10.40
2018-05-23T11:08:12.267Z,10.20
2018-05-23T11:09:12.279Z,10.30
2018-05-23T11:10:12.286Z,9.90
2018-05-23T11:11:12.299Z,10.50
2018-05-23T11:12:12.306Z,9.10
2018-05-23T11:13:12.316Z,9.90
2018-05-23T11:14:12.325Z,10.10
2018-05-23T11:15:12.354Z,10.60
2018-05-23T11:16:12.353Z,9.70
2018-05-23T11:17:12.359Z,9.80
2018-05-23T11:18:12.370Z,9.70
2018-05-23T11:19:12.383Z,8.40
2018-05-23T11:20:12.392Z,9.30
2018-05-23T11:21:12.407Z,9.30
2018-05-23T11:22:12.414Z,8.80
2018-05-23T11:23:12.430Z,9.70
2018-05-23T11:24:12.638Z,9.40
2018-05-23T11:25:12.447Z,9.90
2018-05-23T11:26:12.458Z,9.80
2018-05-23T11:27:12.470Z,9.90
2018-05-23T11:28:12.485Z,9.20
2018-05-23T11:29:12.494Z,8.80
2018-05-23T11:30:12.502Z,9.50
2018-05-23T11:31:12.513Z,10.30
2018-05-23T11:32:12.524Z,11.60
2018-05-23T11:33:12.536Z,10.60
2018-05-23T11:34:12.552Z,10.30
2018-05-23T11:35:12.556Z,11.80
2018-05-23T11:36:12.587Z,9.90
2018-05-23T11:37:12.578Z,9.70
2018-05-23T11:38:12.597Z,9.30
2018-05-23T11:39:12.601Z,9.70
2018-05-23T11:40:12.606Z,8.60
2018-05-23T11:41:12.623Z,9.10
2018-05-23T11:42:12.826Z,9.40
2018-05-23T11:43:12.642Z,10.30
2018-05-23T11:44:12.639Z,10.00
2018-05-23T11:45:12.646Z,10.70
2018-05-23T11:46:12.662Z,10.40
2018-05-23T11:47:12.665Z,9.60
2018-05-23T11:48:12.665Z,9.90
2018-05-23T11:49:12.675Z,9.90
2018-05-23T11:50:12.678Z,8.10
2018-05-23T11:51:12.703Z,9.20
2018-05-23T11:52:12.741Z,8.90
2018-05-23T11:53:12.701Z,8.10
2018-05-23T11:54:12.713Z,8.10
2018-05-23T11:55:12.726Z,8.80
2018-05-23T11:56:12.732Z,8.60
2018-05-23T11:57:12.741Z,8.00
2018-05-23T11:58:12.949Z,7.90
2018-05-23T11:59:12.757Z,7.70
2018-05-23T12:00:12.767Z,8.60
2018-05-23T12:01:12.786Z,7.10
2018-05-23T12:02:12.793Z,7.20
2018-05-23T12:03:12.800Z,5.80
2018-05-23T12:04:12.811Z,5.30
2018-05-23T12:05:12.831Z,4.80
2018-05-23T12:06:12.840Z,3.70
2018-05-23T12:07:12.845Z,3.50
2018-05-23T12:08:12.860Z,4.00
2018-05-23T12:09:12.873Z,3.00
2018-05-23T12:10:12.883Z,3.40
2018-05-23T12:11:12.903Z,3.60
2018-05-23T12:12:12.913Z,3.40
2018-05-23T12:13:12.925Z,3.10
2018-05-23T12:14:12.934Z,3.20
2018-05-23T12:15:12.948Z,3.10
2018-05-23T12:16:12.971Z,3.70
2018-05-23T12:17:12.974Z,3.80
2018-05-23T12:18:12.984Z,3.90
2018-05-23T12:19:12.999Z,4.10
2018-05-23T12:20:13.011Z,3.60
2018-05-23T12:21:13.019Z,3.50
2018-05-23T12:22:13.033Z,3.90
2018-05-23T12:23:13.047Z,3.40
2018-05-23T12:24:13.050Z,4.10
2018-05-23T12:25:13.060Z,3.80
2018-05-23T12:26:13.068Z,3.60
2018-05-23T12:27:13.086Z,4.10
2018-05-23T12:28:13.085Z,4.00
2018-05-23T12:29:13.096Z,3.70
2018-05-23T12:30:13.100Z,3.70
2018-05-23T12:31:13.107Z,3.60
2018-05-23T12:32:13.116Z,3.70
2018-05-23T12:33:13.121Z,4.70
2018-05-23T12:34:13.128Z,3.80
2018-05-23T12:35:13.132Z,4.80
2018-05-23T12:36:13.141Z,4.90
2018-05-23T12:37:13.145Z,4.30
2018-05-23T12:38:13.153Z,4.10
2018-05-23T12:39:13.153Z,3.70
2018-05-23T12:40:13.162Z,3.70
2018-05-23T12:41:13.163Z,3.80
2018-05-23T12:42:13.172Z,4.20
2018-05-23T12:43:13.170Z,4.70
2018-05-23T12:44:13.175Z,3.70
2018-05-23T12:45:13.183Z,4.80
2018-05-23T12:46:13.181Z,4.50
2018-05-23T12:47:13.186Z,4.40
2018-05-23T12:48:13.193Z,4.20
2018-05-23T12:49:13.192Z,4.40
2018-05-23T12:50:13.196Z,4.20
2018-05-23T12:51:13.199Z,4.60
2018-05-23T12:52:13.203Z,3.90
2018-05-23T12:53:13.208Z,5.00
2018-05-23T12:54:13.209Z,4.60
2018-05-23T12:55:13.211Z,4.70
2018-05-23T12:56:13.217Z,5.30
2018-05-23T12:57:13.217Z,4.50
2018-05-23T12:58:13.217Z,5.30
2018-05-23T12:59:13.221Z,4.80
2018-05-23T13:00:13.223Z,5.00
2018-05-23T13:01:13.228Z,4.70
2018-05-23T13:02:13.228Z,5.60
2018-05-23T13:03:13.237Z,5.00
2018-05-23T13:04:13.232Z,4.40
2018-05-23T13:05:13.236Z,4.90
2018-05-23T13:06:13.438Z,5.20
2018-05-23T13:07:13.238Z,5.70
2018-05-23T13:08:13.247Z,5.00
2018-05-23T13:09:13.452Z,4.50
2018-05-23T13:10:13.246Z,4.30
2018-05-23T13:11:13.248Z,4.40